Time;durP1;ratioP1;P1;durP2;ratioP2;P2;SDS_P1;SDS_P2;PMS_P1;PMS_P2;Temp;Humidity;BMP_temperature;BMP_pressure;BME280_temperature;BME280_humidity;BME280_pressure;Samples;Min_cycle;Max_cycle;Signal;HPM_P1;HPM_P2
2022/08/25 00:02:23;;;;;;;7.05;4.50;;;;;;;;;;10101644;28;21271;-68
2022/08/25 00:07:21;;;;;;;5.32;4.20;;;;;;;;;;10106517;28;20058;-69
2022/08/25 00:12:19;;;;;;;6.47;4.03;;;;;;;;;;10108346;28;20047;-69
2022/08/25 00:17:15;;;;;;;7.22;3.80;;;;;;;;;;10099552;28;20225;-68
2022/08/25 00:22:11;;;;;;;7.90;4.30;;;;;;;;;;10105883;28;20078;-68
2022/08/25 00:27:10;;;;;;;12.32;5.10;;;;;;;;;;10105997;28;20133;-68
2022/08/25 00:32:06;;;;;;;6.95;3.72;;;;;;;;;;10102073;28;20122;-67
2022/08/25 00:37:05;;;;;;;7.22;4.13;;;;;;;;;;10105201;28;20500;-68
2022/08/25 00:42:03;;;;;;;9.38;3.72;;;;;;;;;;10100359;28;20051;-67
2022/08/25 00:47:02;;;;;;;5.95;4.20;;;;;;;;;;10104506;28;20445;-68
2022/08/25 00:52:01;;;;;;;4.30;3.15;;;;;;;;;;10096659;28;20081;-69
2022/08/25 00:56:58;;;;;;;7.45;4.43;;;;;;;;;;10095229;28;20109;-69
2022/08/25 01:01:55;;;;;;;8.00;4.22;;;;;;;;;;10085520;28;20127;-70
2022/08/25 01:06:52;;;;;;;6.07;3.80;;;;;;;;;;10082125;28;20587;-68
2022/08/25 01:11:48;;;;;;;5.40;3.80;;;;;;;;;;10104051;28;20090;-69
2022/08/25 01:16:45;;;;;;;7.20;3.72;;;;;;;;;;10096038;28;20066;-69
2022/08/25 01:21:50;;;;;;;7.50;3.53;;;;;;;;;;10099068;28;20109;-69
2022/08/25 01:26:46;;;;;;;5.40;3.50;;;;;;;;;;10097576;28;20089;-68
2022/08/25 01:31:43;;;;;;;7.50;4.07;;;;;;;;;;10103556;28;20497;-68
2022/08/25 01:36:41;;;;;;;6.57;3.75;;;;;;;;;;10097493;28;20082;-68
2022/08/25 01:41:43;;;;;;;5.55;3.78;;;;;;;;;;10097986;28;20473;-68
2022/08/25 01:46:39;;;;;;;6.88;4.65;;;;;;;;;;10093047;28;20568;-69
2022/08/25 01:51:42;;;;;;;7.10;3.95;;;;;;;;;;10103279;28;20518;-68
2022/08/25 01:56:38;;;;;;;6.30;3.72;;;;;;;;;;10098354;28;20075;-68
2022/08/25 02:01:35;;;;;;;5.50;3.80;;;;;;;;;;10094040;28;20106;-69
2022/08/25 02:06:33;;;;;;;8.35;3.50;;;;;;;;;;10098876;28;20057;-66
2022/08/25 02:11:31;;;;;;;6.43;3.95;;;;;;;;;;10101888;28;20051;-67
2022/08/25 02:16:29;;;;;;;6.43;3.35;;;;;;;;;;10111796;28;20743;-67
2022/08/25 02:21:25;;;;;;;7.90;4.03;;;;;;;;;;10104256;28;20069;-68
2022/08/25 02:26:22;;;;;;;9.65;4.55;;;;;;;;;;10110311;28;20472;-68
2022/08/25 02:31:19;;;;;;;7.72;3.92;;;;;;;;;;10103154;28;20142;-68
2022/08/25 02:36:16;;;;;;;6.05;3.70;;;;;;;;;;10105360;28;20131;-68
2022/08/25 02:41:13;;;;;;;6.60;3.88;;;;;;;;;;10111805;28;20070;-69
2022/08/25 02:46:10;;;;;;;7.95;4.00;;;;;;;;;;10102030;28;20058;-71
2022/08/25 02:51:08;;;;;;;6.43;3.90;;;;;;;;;;10109364;28;20133;-68
2022/08/25 02:56:06;;;;;;;6.63;3.78;;;;;;;;;;10109620;28;20093;-69
2022/08/25 03:01:02;;;;;;;7.22;3.88;;;;;;;;;;10105844;28;20158;-69
2022/08/25 03:06:00;;;;;;;6.35;3.60;;;;;;;;;;10099893;28;20059;-69
2022/08/25 03:10:56;;;;;;;6.22;4.10;;;;;;;;;;10103230;28;20043;-68
2022/08/25 03:15:53;;;;;;;5.63;3.25;;;;;;;;;;10096289;28;20140;-68
2022/08/25 03:20:49;;;;;;;8.00;3.50;;;;;;;;;;10101669;28;20078;-69
2022/08/25 03:31:00;;;;;;;6.63;3.90;;;;;;;;;;10104377;28;20135;-69
2022/08/25 03:35:58;;;;;;;7.80;4.22;;;;;;;;;;10102098;28;20533;-68
2022/08/25 03:40:54;;;;;;;6.60;4.28;;;;;;;;;;10105306;28;20677;-67
2022/08/25 03:45:50;;;;;;;7.43;4.40;;;;;;;;;;10103480;28;20457;-67
2022/08/25 03:50:48;;;;;;;6.60;3.67;;;;;;;;;;10103320;28;20058;-68
2022/08/25 03:55:47;;;;;;;7.60;3.97;;;;;;;;;;10107161;28;20064;-67
2022/08/25 04:00:43;;;;;;;6.13;4.55;;;;;;;;;;10102985;28;20118;-67
2022/08/25 04:05:40;;;;;;;6.25;4.10;;;;;;;;;;10101777;28;20058;-68
2022/08/25 04:10:36;;;;;;;7.75;4.63;;;;;;;;;;10104894;28;20050;-67
2022/08/25 04:15:34;;;;;;;8.30;5.05;;;;;;;;;;10098746;28;20141;-67
2022/08/25 04:20:30;;;;;;;6.72;4.07;;;;;;;;;;10102298;28;20113;-67
2022/08/25 04:25:27;;;;;;;6.32;4.35;;;;;;;;;;10102564;28;20744;-67
2022/08/25 04:30:23;;;;;;;6.70;4.15;;;;;;;;;;10095353;28;20074;-68
2022/08/25 04:35:21;;;;;;;7.18;3.85;;;;;;;;;;10103128;28;20054;-69
2022/08/25 04:40:17;;;;;;;6.03;4.57;;;;;;;;;;10105335;28;20046;-67
2022/08/25 04:45:19;;;;;;;8.23;4.63;;;;;;;;;;10098488;28;20158;-69
2022/08/25 04:50:15;;;;;;;11.73;5.90;;;;;;;;;;10099155;28;20565;-69
2022/08/25 04:55:11;;;;;;;9.10;5.07;;;;;;;;;;10104758;28;20082;-67
2022/08/25 05:00:08;;;;;;;6.80;4.00;;;;;;;;;;10102688;28;20039;-67
2022/08/25 05:05:05;;;;;;;10.18;4.22;;;;;;;;;;10113014;28;20495;-67
2022/08/25 05:10:02;;;;;;;13.50;5.30;;;;;;;;;;10105965;28;20154;-66
2022/08/25 05:15:48;;;;;;;7.80;5.22;;;;;;;;;;10101808;28;20146;-67
2022/08/25 05:20:15;;;;;;;7.78;5.05;;;;;;;;;;10056014;28;20130;-67
2022/08/25 05:25:11;;;;;;;7.85;4.70;;;;;;;;;;10060071;28;20126;-67
2022/08/25 05:30:09;;;;;;;10.90;5.80;;;;;;;;;;10058058;28;20134;-68
2022/08/25 05:35:06;;;;;;;9.90;6.15;;;;;;;;;;10061754;28;20112;-68
2022/08/25 05:40:04;;;;;;;12.98;8.73;;;;;;;;;;10058393;28;20477;-68
2022/08/25 05:45:00;;;;;;;12.65;7.40;;;;;;;;;;10059141;28;20102;-67
2022/08/25 05:49:57;;;;;;;11.63;7.80;;;;;;;;;;10066402;28;20047;-68
2022/08/25 05:54:54;;;;;;;14.68;8.40;;;;;;;;;;10104699;28;20047;-67
2022/08/25 05:59:50;;;;;;;14.80;8.57;;;;;;;;;;10103650;28;20039;-68
2022/08/25 06:04:47;;;;;;;11.27;7.63;;;;;;;;;;10104113;28;20149;-68
2022/08/25 06:09:45;;;;;;;12.93;8.77;;;;;;;;;;10103928;28;20047;-68
2022/08/25 06:14:41;;;;;;;11.93;9.18;;;;;;;;;;10105934;28;20074;-67
2022/08/25 06:19:37;;;;;;;12.57;9.63;;;;;;;;;;10104352;28;20129;-67
2022/08/25 06:24:36;;;;;;;12.98;7.97;;;;;;;;;;10103511;28;20043;-68
2022/08/25 06:29:33;;;;;;;15.88;9.50;;;;;;;;;;10102885;28;20645;-68
2022/08/25 06:34:29;;;;;;;13.75;9.13;;;;;;;;;;10103059;28;20158;-68
2022/08/25 06:39:25;;;;;;;14.85;11.23;;;;;;;;;;10101489;28;20051;-68
2022/08/25 06:44:23;;;;;;;14.77;9.90;;;;;;;;;;10083650;28;20055;-68
2022/08/25 06:49:19;;;;;;;13.02;9.05;;;;;;;;;;10081370;28;20055;-68
2022/08/25 06:54:15;;;;;;;15.18;9.38;;;;;;;;;;10079098;28;20125;-67
2022/08/25 06:59:12;;;;;;;13.40;10.30;;;;;;;;;;10077692;28;20126;-68
2022/08/25 07:04:09;;;;;;;11.82;9.07;;;;;;;;;;10076149;28;20803;-67
2022/08/25 07:09:09;;;;;;;14.32;9.60;;;;;;;;;;10084912;28;20586;-68
2022/08/25 07:14:07;;;;;;;12.20;9.70;;;;;;;;;;10106381;28;20067;-68
2022/08/25 07:19:03;;;;;;;14.70;10.20;;;;;;;;;;10106893;28;20074;-68
2022/08/25 07:24:02;;;;;;;13.18;10.85;;;;;;;;;;10104843;28;20134;-67
2022/08/25 07:28:58;;;;;;;11.88;9.73;;;;;;;;;;10105159;28;20051;-68
2022/08/25 07:39:11;;;;;;;10.43;8.23;;;;;;;;;;10100776;28;20047;-69
2022/08/25 07:44:09;;;;;;;13.73;11.02;;;;;;;;;;10102259;28;20105;-68
2022/08/25 07:49:06;;;;;;;14.15;10.35;;;;;;;;;;10101806;28;20042;-69
2022/08/25 07:54:12;;;;;;;10.48;8.20;;;;;;;;;;10102425;28;20042;-68
2022/08/25 07:59:08;;;;;;;12.48;9.55;;;;;;;;;;10101958;28;20082;-68
2022/08/25 08:04:07;;;;;;;10.90;8.73;;;;;;;;;;10096172;28;20070;-68
2022/08/25 08:09:04;;;;;;;9.48;7.47;;;;;;;;;;10093611;28;20051;-68
2022/08/25 08:14:01;;;;;;;12.63;9.40;;;;;;;;;;10102358;28;20081;-68
2022/08/25 08:18:57;;;;;;;10.93;8.32;;;;;;;;;;10099866;28;20138;-68
2022/08/25 08:23:54;;;;;;;9.70;7.63;;;;;;;;;;10103086;28;20097;-68
2022/08/25 08:28:54;;;;;;;10.65;7.72;;;;;;;;;;10100563;28;20038;-68
2022/08/25 08:33:52;;;;;;;11.13;8.70;;;;;;;;;;10103317;28;20058;-68
2022/08/25 08:38:48;;;;;;;11.50;8.20;;;;;;;;;;10105189;28;20071;-69
2022/08/25 08:43:46;;;;;;;11.68;7.97;;;;;;;;;;10108444;28;20086;-68
2022/08/25 08:48:47;;;;;;;10.18;8.48;;;;;;;;;;10103274;28;20191;-69
2022/08/25 08:53:47;;;;;;;10.15;7.20;;;;;;;;;;10102438;28;20105;-68
2022/08/25 08:58:46;;;;;;;12.30;8.15;;;;;;;;;;10098283;28;20046;-68
2022/08/25 09:03:51;;;;;;;12.75;8.90;;;;;;;;;;10101576;28;20102;-68
2022/08/25 09:08:54;;;;;;;13.48;9.63;;;;;;;;;;10094849;28;20046;-69
2022/08/25 09:14:03;;;;;;;12.68;9.75;;;;;;;;;;10098675;28;20054;-68
2022/08/25 09:19:38;;;;;;;11.00;7.85;;;;;;;;;;10097083;28;20050;-68
2022/08/25 09:24:40;;;;;;;9.32;7.55;;;;;;;;;;10006955;29;20048;-68
2022/08/25 09:29:45;;;;;;;12.05;8.50;;;;;;;;;;10027122;28;20106;-68
2022/08/25 09:34:42;;;;;;;13.23;9.38;;;;;;;;;;10071736;28;20110;-68
2022/08/25 09:39:38;;;;;;;15.40;9.98;;;;;;;;;;10076677;28;20051;-67
2022/08/25 09:44:40;;;;;;;13.18;10.32;;;;;;;;;;10076463;28;20046;-67
2022/08/25 09:49:41;;;;;;;12.50;10.13;;;;;;;;;;10076828;28;20099;-68
2022/08/25 09:54:37;;;;;;;12.83;10.13;;;;;;;;;;10097219;28;20149;-68
2022/08/25 09:59:40;;;;;;;17.48;10.63;;;;;;;;;;10098955;28;20599;-68
2022/08/25 10:04:52;;;;;;;;;;;;;;;;;;10095895;28;20039;-68
2022/08/25 10:09:53;;;;;;;9.15;8.35;;;;;;;;;;10095583;28;21634;-68
2022/08/25 10:14:50;;;;;;;10.63;9.73;;;;;;;;;;10098310;28;20051;-68
2022/08/25 10:20:13;;;;;;;10.52;9.52;;;;;;;;;;10095254;28;20065;-68
2022/08/25 10:25:11;;;;;;;10.60;9.52;;;;;;;;;;10042230;28;20063;-68
2022/08/25 10:30:14;;;;;;;12.98;9.90;;;;;;;;;;10074423;28;20047;-68
2022/08/25 10:35:13;;;;;;;9.32;8.48;;;;;;;;;;10077148;28;20054;-68
2022/08/25 10:40:21;;;;;;;8.80;8.02;;;;;;;;;;10080701;28;20087;-68
2022/08/25 10:50:41;;;;;;;9.38;8.57;;;;;;;;;;10079717;28;20078;-67
2022/08/25 10:56:03;;;;;;;9.90;8.98;;;;;;;;;;10080297;28;20047;-68
2022/08/25 11:01:12;;;;;;;8.73;7.93;;;;;;;;;;10100661;28;20043;-68
2022/08/25 11:06:14;;;;;;;10.38;8.57;;;;;;;;;;10108366;28;20039;-68
2022/08/25 11:11:23;;;;;;;9.75;8.85;;;;;;;;;;10109674;28;20555;-67
2022/08/25 11:16:24;;;;;;;10.15;8.23;;;;;;;;;;10107532;28;20089;-67
2022/08/25 11:21:30;;;;;;;9.10;8.05;;;;;;;;;;10107397;28;20042;-67
2022/08/25 11:26:33;;;;;;;7.97;7.38;;;;;;;;;;10102217;28;20537;-68
2022/08/25 11:31:37;;;;;;;9.10;8.10;;;;;;;;;;10104539;28;20051;-68
2022/08/25 11:36:34;;;;;;;10.02;7.82;;;;;;;;;;10106658;28;20047;-68
2022/08/25 11:41:49;;;;;;;9.10;8.20;;;;;;;;;;10104157;28;20051;-68
2022/08/25 11:46:59;;;;;;;8.10;7.32;;;;;;;;;;10104933;28;20046;-68
2022/08/25 11:51:56;;;;;;;11.07;7.93;;;;;;;;;;10100816;28;20102;-68
2022/08/25 11:57:06;;;;;;;7.97;7.18;;;;;;;;;;10105587;28;20082;-68
2022/08/25 12:02:02;;;;;;;9.13;8.32;;;;;;;;;;10099375;28;20158;-68
2022/08/25 12:07:09;;;;;;;9.60;7.28;;;;;;;;;;10103205;28;20053;-68
2022/08/25 12:12:25;;;;;;;10.38;8.73;;;;;;;;;;10103151;28;20051;-68
2022/08/25 12:17:23;;;;;;;9.88;8.13;;;;;;;;;;10099331;28;20074;-68
2022/08/25 12:22:23;;;;;;;10.15;8.10;;;;;;;;;;10105826;28;20138;-68
2022/08/25 12:27:31;;;;;;;8.35;7.63;;;;;;;;;;10108480;28;20910;-68
2022/08/25 12:33:07;;;;;;;9.60;7.53;;;;;;;;;;10104796;28;20051;-68
2022/08/25 12:38:04;;;;;;;9.10;8.07;;;;;;;;;;10101992;28;20176;-68
2022/08/25 12:43:02;;;;;;;9.70;8.57;;;;;;;;;;10095463;28;20078;-68
2022/08/25 12:48:18;;;;;;;10.40;8.38;;;;;;;;;;10101739;28;20061;-68
2022/08/25 12:53:18;;;;;;;8.43;7.65;;;;;;;;;;10109450;28;20074;-68
2022/08/25 12:58:16;;;;;;;9.85;7.50;;;;;;;;;;10108915;28;20531;-68
2022/08/25 13:03:31;;;;;;;8.30;7.55;;;;;;;;;;10109428;28;20053;-68
2022/08/25 13:08:28;;;;;;;9.50;8.68;;;;;;;;;;10095940;28;20046;-68
2022/08/25 13:13:38;;;;;;;10.95;8.60;;;;;;;;;;10098816;28;20154;-68
2022/08/25 13:18:36;;;;;;;8.63;7.93;;;;;;;;;;10101394;28;20058;-68
2022/08/25 13:23:37;;;;;;;7.38;6.65;;;;;;;;;;10103172;28;20164;-68
2022/08/25 13:28:38;;;;;;;8.32;7.53;;;;;;;;;;10103841;28;20085;-68
2022/08/25 13:33:37;;;;;;;8.38;7.57;;;;;;;;;;10103192;28;20157;-68
2022/08/25 13:38:34;;;;;;;8.38;7.68;;;;;;;;;;10108204;28;20043;-69
2022/08/25 13:43:31;;;;;;;8.35;7.65;;;;;;;;;;10106853;28;20123;-69
2022/08/25 13:48:38;;;;;;;10.90;7.60;;;;;;;;;;10100101;28;20038;-68
2022/08/25 13:53:53;;;;;;;8.77;7.90;;;;;;;;;;10103716;28;20448;-68
2022/08/25 13:58:50;;;;;;;8.65;7.85;;;;;;;;;;10101966;28;20147;-69
2022/08/25 14:03:46;;;;;;;8.32;7.53;;;;;;;;;;10106986;28;20126;-69
2022/08/25 14:08:46;;;;;;;8.13;7.35;;;;;;;;;;10106522;28;20046;-69
2022/08/25 14:13:58;;;;;;;8.07;7.28;;;;;;;;;;10109670;28;20051;-69
2022/08/25 14:18:56;;;;;;;8.15;7.35;;;;;;;;;;10108321;28;20129;-69
2022/08/25 14:23:55;;;;;;;8.32;7.32;;;;;;;;;;10109302;28;20035;-69
2022/08/25 14:28:51;;;;;;;8.50;7.70;;;;;;;;;;10106745;28;20141;-68
2022/08/25 14:33:52;;;;;;;8.23;7.53;;;;;;;;;;10106834;28;20382;-70
2022/08/25 14:38:49;;;;;;;8.00;7.20;;;;;;;;;;10090573;28;20061;-70
2022/08/25 14:43:50;;;;;;;8.05;7.28;;;;;;;;;;10091552;28;20046;-69
2022/08/25 14:48:54;;;;;;;7.72;7.03;;;;;;;;;;10086471;28;20637;-69
2022/08/25 14:53:55;;;;;;;9.07;8.18;;;;;;;;;;10086272;28;20061;-69
2022/08/25 14:58:51;;;;;;;10.13;7.82;;;;;;;;;;10088674;28;20046;-70
2022/08/25 15:03:51;;;;;;;7.90;7.20;;;;;;;;;;10091182;28;20051;-70
2022/08/25 15:14:03;;;;;;;9.40;7.63;;;;;;;;;;10105100;28;20457;-69
2022/08/25 15:19:00;;;;;;;9.05;8.20;;;;;;;;;;10102398;28;20942;-69
2022/08/25 15:24:02;;;;;;;8.02;7.20;;;;;;;;;;10105757;28;20065;-69
2022/08/25 15:29:00;;;;;;;8.52;7.70;;;;;;;;;;10101400;28;20109;-69
2022/08/25 15:33:58;;;;;;;7.78;6.97;;;;;;;;;;10105789;28;20149;-69
2022/08/25 15:38:54;;;;;;;9.38;8.48;;;;;;;;;;10102619;28;20129;-69
2022/08/25 15:43:51;;;;;;;8.32;7.55;;;;;;;;;;10103835;28;20539;-71
2022/08/25 15:48:48;;;;;;;8.90;7.20;;;;;;;;;;10106987;28;20050;-71
2022/08/25 15:53:45;;;;;;;8.70;7.18;;;;;;;;;;10107190;28;20106;-69
2022/08/25 15:58:41;;;;;;;8.27;7.47;;;;;;;;;;10106371;28;20047;-69
2022/08/25 16:03:45;;;;;;;9.15;7.82;;;;;;;;;;10094580;28;20520;-69
2022/08/25 16:08:42;;;;;;;10.05;7.35;;;;;;;;;;10100308;28;20126;-68
2022/08/25 16:13:38;;;;;;;9.07;7.30;;;;;;;;;;10104461;28;20049;-69
2022/08/25 16:18:37;;;;;;;9.18;7.38;;;;;;;;;;10097224;28;20138;-68
2022/08/25 16:23:33;;;;;;;8.27;7.32;;;;;;;;;;10103130;28;20070;-69
2022/08/25 16:28:30;;;;;;;8.25;7.43;;;;;;;;;;10106767;28;20137;-69
2022/08/25 16:33:26;;;;;;;8.85;7.95;;;;;;;;;;10101431;28;20576;-69
2022/08/25 16:38:22;;;;;;;8.90;7.20;;;;;;;;;;10104284;28;20039;-69
2022/08/25 16:43:20;;;;;;;8.48;7.68;;;;;;;;;;10110570;28;20684;-69
2022/08/25 16:48:17;;;;;;;8.55;7.63;;;;;;;;;;10102706;28;20078;-68
2022/08/25 16:58:31;;;;;;;8.02;7.25;;;;;;;;;;10099512;28;20277;-70
2022/08/25 17:03:28;;;;;;;10.20;7.28;;;;;;;;;;10101185;28;20085;-69
2022/08/25 17:08:29;;;;;;;10.65;7.20;;;;;;;;;;10099552;28;20171;-69
2022/08/25 17:13:26;;;;;;;8.07;7.30;;;;;;;;;;10098726;28;20043;-69
2022/08/25 17:18:27;;;;;;;8.57;7.68;;;;;;;;;;10101879;28;20061;-69
2022/08/25 17:23:24;;;;;;;7.82;7.13;;;;;;;;;;10103764;28;20081;-69
2022/08/25 17:28:20;;;;;;;8.30;7.50;;;;;;;;;;10104052;28;20105;-69
2022/08/25 17:33:18;;;;;;;8.98;7.90;;;;;;;;;;10100567;28;20050;-69
2022/08/25 17:38:24;;;;;;;8.48;7.22;;;;;;;;;;10101873;28;20057;-69
2022/08/25 17:43:21;;;;;;;8.65;7.45;;;;;;;;;;10108125;28;20061;-69
2022/08/25 17:48:18;;;;;;;9.25;8.13;;;;;;;;;;10109145;28;20039;-69
2022/08/25 17:53:14;;;;;;;11.25;7.70;;;;;;;;;;10110725;28;20042;-69
2022/08/25 17:58:12;;;;;;;9.63;7.43;;;;;;;;;;10108088;28;20047;-69
2022/08/25 18:03:09;;;;;;;8.55;7.15;;;;;;;;;;10107672;28;20043;-71
2022/08/25 18:08:05;;;;;;;8.18;7.13;;;;;;;;;;10109431;28;20098;-68
2022/08/25 18:13:06;;;;;;;10.02;8.15;;;;;;;;;;10112017;28;20451;-68
2022/08/25 18:18:02;;;;;;;9.32;7.32;;;;;;;;;;10111429;28;20047;-68
2022/08/25 18:23:00;;;;;;;7.28;6.47;;;;;;;;;;10105233;28;20061;-70
2022/08/25 18:27:56;;;;;;;7.80;6.82;;;;;;;;;;10111055;28;20043;-68
2022/08/25 18:32:53;;;;;;;7.57;6.65;;;;;;;;;;10104589;28;20166;-68
2022/08/25 18:43:06;;;;;;;7.47;6.78;;;;;;;;;;10100769;28;20110;-68
2022/08/25 18:48:02;;;;;;;10.45;7.70;;;;;;;;;;10107326;28;20124;-69
2022/08/25 18:53:02;;;;;;;11.27;8.20;;;;;;;;;;10106433;28;20093;-69
2022/08/25 18:58:01;;;;;;;7.72;6.90;;;;;;;;;;10102080;28;20551;-68
2022/08/25 19:02:58;;;;;;;8.73;6.75;;;;;;;;;;10109218;28;20047;-69
2022/08/25 19:07:55;;;;;;;10.30;6.45;;;;;;;;;;10107053;28;20083;-69
2022/08/25 19:12:52;;;;;;;11.57;6.65;;;;;;;;;;10111205;28;20137;-69
2022/08/25 19:17:52;;;;;;;9.93;7.13;;;;;;;;;;10108894;28;20066;-68
2022/08/25 19:22:49;;;;;;;8.88;6.80;;;;;;;;;;10106059;28;20059;-68
2022/08/25 19:27:47;;;;;;;9.93;7.32;;;;;;;;;;10109676;28;20075;-70
2022/08/25 19:32:45;;;;;;;8.85;6.10;;;;;;;;;;10102107;28;20477;-68
2022/08/25 19:37:41;;;;;;;13.48;6.88;;;;;;;;;;10106431;28;20117;-68
2022/08/25 19:42:38;;;;;;;11.88;6.05;;;;;;;;;;10107713;28;20086;-68
2022/08/25 19:47:36;;;;;;;9.88;6.20;;;;;;;;;;10110482;28;20124;-70
2022/08/25 19:52:33;;;;;;;10.13;5.95;;;;;;;;;;10108618;28;20428;-70
2022/08/25 19:57:30;;;;;;;12.52;6.03;;;;;;;;;;10110022;28;20134;-68
2022/08/25 20:02:38;;;;;;;10.43;5.65;;;;;;;;;;10099480;28;20074;-68
2022/08/25 20:07:35;;;;;;;6.38;5.32;;;;;;;;;;10107748;28;20034;-68
2022/08/25 20:12:34;;;;;;;9.25;5.70;;;;;;;;;;10104794;28;20094;-68
2022/08/25 20:17:30;;;;;;;11.18;5.88;;;;;;;;;;10104607;28;20138;-69
2022/08/25 20:22:29;;;;;;;7.00;5.18;;;;;;;;;;10103166;28;20043;-69
2022/08/25 20:27:39;;;;;;;7.45;5.85;;;;;;;;;;10102627;28;20548;-69
2022/08/25 20:32:36;;;;;;;9.18;6.00;;;;;;;;;;10104001;28;20242;-69
2022/08/25 20:37:32;;;;;;;10.23;5.95;;;;;;;;;;10100851;28;20525;-69
2022/08/25 20:42:29;;;;;;;12.23;6.68;;;;;;;;;;10101255;28;20544;-69
2022/08/25 20:47:26;;;;;;;8.43;5.72;;;;;;;;;;10104379;28;20047;-69
2022/08/25 20:52:22;;;;;;;9.98;5.65;;;;;;;;;;10099472;28;20039;-69
2022/08/25 20:57:20;;;;;;;8.73;5.75;;;;;;;;;;10103981;28;20074;-69
2022/08/25 21:02:22;;;;;;;7.95;5.38;;;;;;;;;;10102763;28;20429;-69
2022/08/25 21:07:20;;;;;;;8.63;5.28;;;;;;;;;;10099623;28;20039;-69
2022/08/25 21:12:19;;;;;;;10.57;5.70;;;;;;;;;;10107766;28;20093;-69
2022/08/25 21:17:16;;;;;;;10.93;5.38;;;;;;;;;;10093962;28;20081;-69
2022/08/25 21:22:14;;;;;;;11.23;6.13;;;;;;;;;;10101856;28;20043;-70
2022/08/25 21:27:11;;;;;;;8.38;5.63;;;;;;;;;;10100683;28;20336;-65
2022/08/25 21:32:07;;;;;;;10.40;6.00;;;;;;;;;;10096051;28;20141;-66
2022/08/25 21:37:05;;;;;;;9.55;5.70;;;;;;;;;;10103549;28;20045;-66
2022/08/25 21:42:03;;;;;;;10.88;6.90;;;;;;;;;;10103410;28;20135;-65
2022/08/25 21:47:00;;;;;;;7.25;5.88;;;;;;;;;;10102488;28;20054;-66
2022/08/25 21:51:56;;;;;;;11.05;5.82;;;;;;;;;;10104814;28;20239;-66
2022/08/25 21:57:01;;;;;;;7.97;5.82;;;;;;;;;;10105064;28;20042;-65
2022/08/25 22:01:58;;;;;;;10.60;5.80;;;;;;;;;;10103004;28;20135;-67
2022/08/25 22:06:55;;;;;;;9.57;5.80;;;;;;;;;;10103509;28;20501;-67
2022/08/25 22:11:54;;;;;;;10.63;5.78;;;;;;;;;;10103580;28;20141;-67
2022/08/25 22:16:50;;;;;;;12.80;7.95;;;;;;;;;;10103104;28;20043;-67
2022/08/25 22:21:47;;;;;;;7.57;6.00;;;;;;;;;;10104259;28;20046;-67
2022/08/25 22:26:44;;;;;;;11.55;7.50;;;;;;;;;;10108233;28;20556;-67
2022/08/25 22:31:43;;;;;;;11.65;6.13;;;;;;;;;;10112162;28;20085;-67
2022/08/25 22:36:40;;;;;;;10.38;6.53;;;;;;;;;;10111975;28;20053;-67
2022/08/25 22:41:36;;;;;;;12.95;5.93;;;;;;;;;;10107899;28;20138;-67
2022/08/25 22:46:37;;;;;;;9.63;5.75;;;;;;;;;;10109072;28;21405;-67
2022/08/25 22:51:33;;;;;;;10.75;6.13;;;;;;;;;;10113221;28;20105;-68
2022/08/25 22:56:31;;;;;;;8.75;5.22;;;;;;;;;;10106209;28;20077;-68
2022/08/25 23:01:28;;;;;;;9.55;5.55;;;;;;;;;;10106320;28;20475;-65
2022/08/25 23:06:25;;;;;;;12.02;6.40;;;;;;;;;;10115498;28;20047;-66
2022/08/25 23:11:22;;;;;;;11.73;5.78;;;;;;;;;;10114378;28;20847;-67
2022/08/25 23:16:18;;;;;;;10.00;6.75;;;;;;;;;;10111043;28;20070;-66
2022/08/25 23:26:36;;;;;;;11.85;5.80;;;;;;;;;;10115343;28;20050;-66
2022/08/25 23:31:38;;;;;;;10.23;5.53;;;;;;;;;;10104767;28;20072;-66
2022/08/25 23:36:35;;;;;;;11.55;6.28;;;;;;;;;;10109655;28;20129;-66
2022/08/25 23:41:32;;;;;;;11.93;5.75;;;;;;;;;;10110454;28;20125;-65
2022/08/25 23:46:28;;;;;;;9.63;5.40;;;;;;;;;;10105905;28;20051;-65
2022/08/25 23:51:29;;;;;;;9.32;5.45;;;;;;;;;;10109545;28;20527;-67
2022/08/25 23:56:25;;;;;;;12.32;5.75;;;;;;;;;;10112724;28;20130;-66
